Kynouria — V7VY6 — position and weather

sailwx.info

Track history (hours):
 
Tides and Currents Weather Stations Pressure Air Temp Water Temp Dewpoint Dewpoint Depression Visibility Wind Speed Wind Dir Waves Ship Positions

Kynouria

Last reported at 2016-Sep-13 07:33 UTC. Time now 2016-Sep-29 15:20 UTC.
Position S 24°42' W 044°21'.
Warning: this ship's position is 16 days out of date.

Length 229 m; draft 13 m.

Type: Ship. MMSI: 538004243.

Date/timePositionNaut miles runAvg speedWind from/ knotsBaromVisibWave heightAir tempDewpointWater temp
2016-Sep-13 07:33S 24°42' W 044°21'8 8.0
2016-Sep-13 06:33S 24°41' W 044°29'18 8.8
2016-Sep-13 04:32S 24°38' W 044°48'21 9.7
2016-Sep-13 02:24S 24°34' W 045°11'2910.4
2016-Sep-12 23:34S 24°30' W 045°43'2110.6
2016-Sep-12 21:33S 24°26' W 046°06'2110.5
2016-Sep-12 19:33S 24°11' W 046°22'12 0.4
2016-Sep-11 15:21S 23°59' W 046°17'4 4.7
2016-Sep-11 14:34S 24°01' W 046°21'7 6.8
2016-Sep-11 13:33S 24°08' W 046°21'2 1.8
2016-Sep-11 12:29S 24°09' W 046°20'0 0.0
2016-Sep-11 11:29S 24°09' W 046°20'0 0.0
2016-Sep-11 10:29S 24°09' W 046°20'0 0.0
2016-Sep-11 08:29S 24°09' W 046°20'0 0.0
2016-Sep-11 07:29S 24°09' W 046°20'7 1.9
2016-Sep-11 03:33S 24°15' W 046°25'1111.3
2016-Sep-11 02:33S 24°25' W 046°30'1211.8
2016-Sep-11 01:33S 24°36' W 046°34'1211.8
2016-Sep-11 00:33S 24°48' W 046°38'  
Track history (hours):
 
Tides and Currents Weather Stations Pressure Air Temp Water Temp Dewpoint Dewpoint Depression Visibility Wind Speed Wind Dir Waves Ship Positions

Kynouria

Last reported at 2016-Sep-13 07:33 UTC. Time now 2016-Sep-29 15:20 UTC.
Position S 24°42' W 044°21'.
Warning: this ship's position is 16 days out of date.

Length 229 m; draft 13 m.

Type: Ship. MMSI: 538004243.

Date/timePositionNaut miles runAvg speedWind from/ knotsBaromVisibWave heightAir tempDewpointWater temp
2016-Sep-13 07:33S 24°42' W 044°21'8 8.0
2016-Sep-13 06:33S 24°41' W 044°29'18 8.8
2016-Sep-13 04:32S 24°38' W 044°48'21 9.7
2016-Sep-13 02:24S 24°34' W 045°11'2910.4
2016-Sep-12 23:34S 24°30' W 045°43'2110.6
2016-Sep-12 21:33S 24°26' W 046°06'2110.5
2016-Sep-12 19:33S 24°11' W 046°22'12 0.4
2016-Sep-11 15:21S 23°59' W 046°17'4 4.7
2016-Sep-11 14:34S 24°01' W 046°21'7 6.8
2016-Sep-11 13:33S 24°08' W 046°21'2 1.8
2016-Sep-11 12:29S 24°09' W 046°20'0 0.0
2016-Sep-11 11:29S 24°09' W 046°20'0 0.0
2016-Sep-11 10:29S 24°09' W 046°20'0 0.0
2016-Sep-11 08:29S 24°09' W 046°20'0 0.0
2016-Sep-11 07:29S 24°09' W 046°20'7 1.9
2016-Sep-11 03:33S 24°15' W 046°25'1111.3
2016-Sep-11 02:33S 24°25' W 046°30'1211.8
2016-Sep-11 01:33S 24°36' W 046°34'1211.8
2016-Sep-11 00:33S 24°48' W 046°38'  

Dump ship's entire track history